createdAt,value
2019-01-23T00:00:29.251Z,99.90
2019-01-23T00:02:57.708Z,99.90
2019-01-23T00:05:26.177Z,99.90
2019-01-23T00:07:54.632Z,99.90
2019-01-23T00:10:23.105Z,99.90
2019-01-23T00:12:51.524Z,99.90
2019-01-23T00:15:19.989Z,99.90
2019-01-23T00:17:48.435Z,99.90
2019-01-23T00:20:16.889Z,99.90
2019-01-23T00:22:45.308Z,99.90
2019-01-23T00:25:13.726Z,99.90
2019-01-23T00:27:42.193Z,99.90
2019-01-23T00:30:12.745Z,99.90
2019-01-23T00:32:41.192Z,99.90
2019-01-23T00:35:09.640Z,99.90
2019-01-23T00:37:38.100Z,99.90
2019-01-23T00:40:12.775Z,99.90
2019-01-23T00:42:41.216Z,99.90
2019-01-23T00:45:11.987Z,99.90
2019-01-23T00:47:40.418Z,99.90
2019-01-23T00:50:10.429Z,99.90
2019-01-23T00:52:38.844Z,99.90
2019-01-23T00:55:10.241Z,99.90
2019-01-23T00:57:38.677Z,99.90
2019-01-23T01:00:13.173Z,99.90
2019-01-23T01:02:41.605Z,99.90
2019-01-23T01:05:10.030Z,99.90
2019-01-23T01:07:38.484Z,99.90
2019-01-23T01:10:10.208Z,99.90
2019-01-23T01:12:38.656Z,99.90
2019-01-23T01:15:13.322Z,99.90
2019-01-23T01:17:37.936Z,99.90
2019-01-23T01:20:09.138Z,99.90
2019-01-23T01:22:37.580Z,99.90
2019-01-23T01:25:08.768Z,99.90
2019-01-23T01:27:37.210Z,99.90
2019-01-23T01:30:08.935Z,99.90
2019-01-23T01:32:37.344Z,99.90
2019-01-23T01:35:06.269Z,99.90
2019-01-23T01:37:34.704Z,99.90
2019-01-23T01:40:04.015Z,99.90
2019-01-23T01:42:32.465Z,99.90
2019-01-23T01:45:00.901Z,99.90
2019-01-23T01:47:29.378Z,99.90
2019-01-23T01:49:57.801Z,99.90
2019-01-23T01:52:26.269Z,99.90
2019-01-23T01:54:54.692Z,99.90
2019-01-23T01:57:23.216Z,99.90
2019-01-23T01:59:51.638Z,99.90
2019-01-23T02:02:20.084Z,99.90
2019-01-23T02:04:48.556Z,99.90
2019-01-23T02:07:17.120Z,99.90
2019-01-23T02:09:45.676Z,99.90
2019-01-23T02:12:14.136Z,99.90
2019-01-23T02:14:42.558Z,99.90
2019-01-23T02:17:11.957Z,99.90
2019-01-23T02:19:40.393Z,99.90
2019-01-23T02:22:08.832Z,99.90
2019-01-23T02:24:37.275Z,99.90
2019-01-23T02:27:05.732Z,99.90
2019-01-23T02:29:34.186Z,99.90
2019-01-23T02:32:02.622Z,99.90
2019-01-23T02:34:31.072Z,99.90
2019-01-23T02:36:59.504Z,99.90
2019-01-23T02:39:27.963Z,99.90
2019-01-23T02:41:56.388Z,99.90
2019-01-23T02:44:24.833Z,99.90
2019-01-23T02:46:53.292Z,99.90
2019-01-23T02:49:21.747Z,99.90
2019-01-23T02:51:50.163Z,99.90
2019-01-23T02:54:18.597Z,99.90
2019-01-23T02:56:47.982Z,99.90
2019-01-23T02:59:17.424Z,99.90
2019-01-23T03:01:46.071Z,99.90
2019-01-23T03:04:14.505Z,99.90
2019-01-23T03:06:42.971Z,99.90
2019-01-23T03:09:11.420Z,99.90
2019-01-23T03:11:39.853Z,99.90
2019-01-23T03:14:08.278Z,99.90
2019-01-23T03:16:36.759Z,99.90
2019-01-23T03:19:05.884Z,99.90
2019-01-23T03:21:34.314Z,99.90
2019-01-23T03:24:02.941Z,99.90
2019-01-23T03:26:31.432Z,99.90
2019-01-23T03:28:59.879Z,99.90
2019-01-23T03:31:28.323Z,99.90
2019-01-23T03:33:56.764Z,99.90
2019-01-23T03:36:25.222Z,99.90
2019-01-23T03:38:53.660Z,99.90
2019-01-23T03:41:22.156Z,99.90
2019-01-23T03:43:50.566Z,99.90
2019-01-23T03:46:18.967Z,99.90
2019-01-23T03:48:47.422Z,99.90
2019-01-23T03:51:15.866Z,99.90
2019-01-23T03:53:44.326Z,99.90
2019-01-23T03:56:12.779Z,99.90
2019-01-23T03:58:41.243Z,99.90
2019-01-23T04:01:09.666Z,99.90
2019-01-23T04:03:38.119Z,99.90
2019-01-23T04:06:06.567Z,99.90
2019-01-23T04:08:35.020Z,99.90
2019-01-23T04:11:03.475Z,99.90
2019-01-23T04:13:31.862Z,99.90
2019-01-23T04:16:00.254Z,99.90
2019-01-23T04:18:28.661Z,99.90
2019-01-23T04:20:57.051Z,99.90
2019-01-23T04:23:25.459Z,99.90
2019-01-23T04:25:53.838Z,99.90
2019-01-23T04:28:24.811Z,99.90
2019-01-23T04:30:53.192Z,99.90
2019-01-23T04:33:21.588Z,99.90
2019-01-23T04:39:15.349Z,99.90
2019-01-23T04:41:43.770Z,99.90
2019-01-23T04:44:12.122Z,99.90
2019-01-23T04:46:40.515Z,99.90
2019-01-23T04:49:08.934Z,99.90
2019-01-23T04:51:41.646Z,99.90
2019-01-23T04:54:11.013Z,99.90
2019-01-23T04:56:39.398Z,99.90
2019-01-23T04:59:07.817Z,99.90
2019-01-23T05:01:36.210Z,99.90
2019-01-23T05:04:05.073Z,99.90
2019-01-23T05:06:33.463Z,99.90
2019-01-23T05:09:01.858Z,99.90
2019-01-23T05:11:30.252Z,99.90
2019-01-23T05:13:58.626Z,99.90
2019-01-23T05:16:27.033Z,99.90
2019-01-23T05:18:55.412Z,99.90
2019-01-23T05:21:23.818Z,99.90
2019-01-23T05:23:52.185Z,99.90
2019-01-23T05:26:20.564Z,99.90
2019-01-23T05:28:48.964Z,99.90
2019-01-23T05:31:17.329Z,99.90
2019-01-23T05:33:45.742Z,99.90
2019-01-23T05:36:14.123Z,99.90
2019-01-23T05:38:42.591Z,99.90
2019-01-23T05:41:10.966Z,99.90
2019-01-23T05:43:39.374Z,99.90
2019-01-23T05:46:07.743Z,99.90
2019-01-23T05:48:36.146Z,99.90
2019-01-23T05:51:04.523Z,99.90
2019-01-23T05:53:32.930Z,99.90
2019-01-23T05:56:01.330Z,99.90
2019-01-23T05:58:29.751Z,99.90
2019-01-23T06:00:58.127Z,99.90
2019-01-23T06:03:26.534Z,99.90
2019-01-23T06:05:54.977Z,99.90
2019-01-23T06:08:23.474Z,99.90
2019-01-23T06:10:51.860Z,99.90
2019-01-23T06:13:20.271Z,99.90
2019-01-23T06:15:48.662Z,99.90
2019-01-23T06:18:17.083Z,99.90
2019-01-23T06:20:45.445Z,99.90
2019-01-23T06:23:13.860Z,99.90
2019-01-23T06:25:42.234Z,99.90
2019-01-23T06:28:10.636Z,99.90
2019-01-23T06:30:39.028Z,99.90
2019-01-23T06:33:07.425Z,99.90
2019-01-23T06:35:35.829Z,99.90
2019-01-23T06:38:04.198Z,99.90
2019-01-23T06:40:32.604Z,99.90
2019-01-23T06:43:00.987Z,99.90
2019-01-23T06:45:29.391Z,99.90
2019-01-23T06:47:57.785Z,99.90
2019-01-23T06:50:26.199Z,99.90
2019-01-23T06:52:54.598Z,99.90
2019-01-23T06:55:23.046Z,99.90
2019-01-23T06:57:51.450Z,99.90
2019-01-23T07:00:21.893Z,99.90
2019-01-23T07:02:50.286Z,99.90
2019-01-23T07:05:18.658Z,99.90
2019-01-23T07:07:47.064Z,99.90
2019-01-23T07:10:18.739Z,99.90
2019-01-23T07:12:47.196Z,99.90
2019-01-23T07:15:15.611Z,99.90
2019-01-23T07:17:44.014Z,99.90
2019-01-23T07:20:17.751Z,99.90
2019-01-23T07:22:46.155Z,99.90
2019-01-23T07:25:14.533Z,99.90
2019-01-23T07:27:42.919Z,99.90
2019-01-23T07:30:24.279Z,99.90
2019-01-23T07:32:53.062Z,99.90
2019-01-23T07:35:21.458Z,99.90
2019-01-23T07:37:49.863Z,99.90
2019-01-23T07:40:18.243Z,99.90
2019-01-23T07:42:46.621Z,99.90
2019-01-23T07:45:18.023Z,99.90
2019-01-23T07:47:46.397Z,99.90
2019-01-23T07:50:14.815Z,99.90
2019-01-23T07:52:43.199Z,99.90
2019-01-23T07:55:19.316Z,99.90
2019-01-23T07:57:47.703Z,99.90
2019-01-23T08:00:18.154Z,99.90
2019-01-23T08:02:46.537Z,99.90
2019-01-23T08:05:19.514Z,99.90
2019-01-23T08:07:48.199Z,99.90
2019-01-23T08:10:18.074Z,99.90
2019-01-23T08:12:46.813Z,99.90
2019-01-23T08:15:20.983Z,99.90
2019-01-23T08:17:49.387Z,99.90
2019-01-23T08:20:19.901Z,99.90
2019-01-23T08:22:48.318Z,99.90
2019-01-23T08:25:16.685Z,99.90
2019-01-23T08:27:45.116Z,99.90
2019-01-23T08:30:16.311Z,99.90
2019-01-23T08:32:44.706Z,99.90
2019-01-23T08:35:13.508Z,99.90
2019-01-23T08:37:41.938Z,99.90
2019-01-23T08:40:12.868Z,99.90
2019-01-23T08:42:41.341Z,99.90
2019-01-23T08:45:11.495Z,99.90
2019-01-23T08:47:39.897Z,99.90
2019-01-23T08:50:20.653Z,99.90
2019-01-23T08:52:49.067Z,99.90
2019-01-23T08:55:17.458Z,99.90
2019-01-23T08:57:45.826Z,99.90
2019-01-23T09:00:16.370Z,99.90
2019-01-23T09:02:44.740Z,99.90
2019-01-23T09:05:13.528Z,99.90
2019-01-23T09:07:41.989Z,99.90
2019-01-23T09:10:22.316Z,99.90
2019-01-23T09:12:50.654Z,99.90
2019-01-23T09:15:19.054Z,99.90
2019-01-23T09:17:47.445Z,99.90
2019-01-23T09:20:18.569Z,99.90
2019-01-23T09:22:46.940Z,99.90
2019-01-23T09:25:23.545Z,99.90
2019-01-23T09:27:51.920Z,99.90
2019-01-23T09:30:35.615Z,99.90
2019-01-23T09:33:19.211Z,99.90
2019-01-23T09:35:50.871Z,99.90
2019-01-23T09:38:22.538Z,99.90
2019-01-23T09:40:54.190Z,99.90
2019-01-23T09:43:25.830Z,99.60
2019-01-23T09:46:15.748Z,99.60
2019-01-23T09:48:47.382Z,99.30
2019-01-23T09:51:21.957Z,99.10
2019-01-23T09:53:54.794Z,98.90
2019-01-23T09:56:23.307Z,98.40
2019-01-23T09:58:51.687Z,98.40
2019-01-23T10:01:20.096Z,98.50
2019-01-23T10:03:48.503Z,98.90
2019-01-23T10:06:16.880Z,98.60
2019-01-23T10:08:45.285Z,98.70
2019-01-23T10:11:13.680Z,98.60
2019-01-23T10:13:42.078Z,98.60
2019-01-23T10:16:10.454Z,98.50
2019-01-23T10:18:38.857Z,98.40
2019-01-23T10:21:07.275Z,98.40
2019-01-23T10:23:35.651Z,98.50
2019-01-23T10:26:04.058Z,98.40
2019-01-23T10:28:32.442Z,98.50
2019-01-23T10:31:06.550Z,98.70
2019-01-23T10:33:30.869Z,98.70
2019-01-23T10:35:59.288Z,98.70
2019-01-23T10:38:27.691Z,98.70
2019-01-23T10:40:56.070Z,98.80
2019-01-23T10:43:24.483Z,99.20
2019-01-23T10:45:52.901Z,98.80
2019-01-23T10:48:21.276Z,98.90
2019-01-23T10:50:49.752Z,98.80
2019-01-23T10:53:18.197Z,98.70
2019-01-23T10:55:46.589Z,98.60
2019-01-23T10:58:14.966Z,98.60
2019-01-23T11:00:43.362Z,98.50
2019-01-23T11:03:11.739Z,98.40
2019-01-23T11:05:40.142Z,98.10
2019-01-23T11:08:08.524Z,98.10
2019-01-23T11:10:36.916Z,98.20
2019-01-23T11:13:05.317Z,98.20
2019-01-23T11:15:33.727Z,98.10
2019-01-23T11:18:02.091Z,97.80
2019-01-23T11:20:30.506Z,97.50
2019-01-23T11:22:58.919Z,97.00
2019-01-23T11:25:27.297Z,96.80
2019-01-23T11:27:55.686Z,96.80
2019-01-23T11:30:26.380Z,96.90
2019-01-23T11:32:54.795Z,97.10
2019-01-23T11:35:23.459Z,97.00
2019-01-23T11:37:51.835Z,97.00
2019-01-23T11:40:26.407Z,97.00
2019-01-23T11:42:54.783Z,97.00
2019-01-23T11:45:23.190Z,97.00
2019-01-23T11:47:51.581Z,96.70
2019-01-23T11:50:22.889Z,96.90
2019-01-23T11:52:50.082Z,96.90
2019-01-23T11:55:18.583Z,96.90
2019-01-23T11:57:46.955Z,96.70
2019-01-23T12:00:20.079Z,96.70
2019-01-23T12:02:48.485Z,96.80
2019-01-23T12:05:19.459Z,96.60
2019-01-23T12:07:47.932Z,96.50
2019-01-23T12:10:23.763Z,96.40
2019-01-23T12:12:52.205Z,96.50
2019-01-23T12:15:22.559Z,96.60
2019-01-23T12:17:50.975Z,96.60
2019-01-23T12:20:19.438Z,96.60
2019-01-23T12:22:47.851Z,96.50
2019-01-23T12:25:16.236Z,96.50
2019-01-23T12:27:44.622Z,96.50
2019-01-23T12:30:16.307Z,96.40
2019-01-23T12:32:44.699Z,96.20
2019-01-23T12:35:13.078Z,96.30
2019-01-23T12:37:41.477Z,96.20
2019-01-23T12:40:12.829Z,95.90
2019-01-23T12:42:41.229Z,95.90
2019-01-23T12:45:18.465Z,96.10
2019-01-23T12:47:46.868Z,96.50
2019-01-23T12:50:18.215Z,96.10
2019-01-23T12:52:46.598Z,96.30
2019-01-23T12:55:14.987Z,96.00
2019-01-23T12:57:43.394Z,96.20
2019-01-23T13:00:20.741Z,96.20
2019-01-23T13:02:49.139Z,96.30
2019-01-23T13:05:19.159Z,96.30
2019-01-23T13:07:47.554Z,96.40
2019-01-23T13:10:18.097Z,96.40
2019-01-23T13:12:46.493Z,96.30
2019-01-23T13:15:17.801Z,96.70
2019-01-23T13:17:46.181Z,96.90
2019-01-23T13:20:16.928Z,96.80
2019-01-23T13:22:45.332Z,96.80
2019-01-23T13:25:18.588Z,96.90
2019-01-23T13:27:46.961Z,96.90
2019-01-23T13:30:20.437Z,96.90
2019-01-23T13:32:48.812Z,96.90
2019-01-23T13:35:19.950Z,97.20
2019-01-23T13:37:48.343Z,97.10
2019-01-23T13:40:19.999Z,97.00
2019-01-23T13:42:48.372Z,97.30
2019-01-23T13:45:16.752Z,97.30
2019-01-23T13:47:45.157Z,97.40
2019-01-23T13:50:14.370Z,97.30
2019-01-23T13:52:42.768Z,97.30
2019-01-23T13:55:22.290Z,97.30
2019-01-23T13:57:50.658Z,97.40
2019-01-23T14:00:37.271Z,97.30
2019-01-23T14:03:05.843Z,97.20
2019-01-23T14:05:34.272Z,97.30
2019-01-23T14:08:03.123Z,97.40
2019-01-23T14:10:31.527Z,97.30
2019-01-23T14:12:59.890Z,97.50
2019-01-23T14:15:31.394Z,97.50
2019-01-23T14:17:59.769Z,97.30
2019-01-23T14:20:28.146Z,97.30
2019-01-23T14:22:56.555Z,97.40
2019-01-23T14:25:24.955Z,97.30
2019-01-23T14:27:53.352Z,97.30
2019-01-23T14:30:30.274Z,97.30
2019-01-23T14:32:58.687Z,97.40
2019-01-23T14:35:27.603Z,97.30
2019-01-23T14:38:00.503Z,97.20
2019-01-23T14:40:26.020Z,97.20
2019-01-23T14:42:54.423Z,97.20
2019-01-23T14:45:22.836Z,97.50
2019-01-23T14:47:51.214Z,97.10
2019-01-23T14:50:20.959Z,97.40
2019-01-23T14:52:49.623Z,97.30
2019-01-23T14:55:18.040Z,97.50
2019-01-23T14:57:46.443Z,97.70
2019-01-23T15:00:31.906Z,97.80
2019-01-23T15:03:00.306Z,97.80
2019-01-23T15:05:28.677Z,97.70
2019-01-23T15:07:57.083Z,97.90
2019-01-23T15:10:28.258Z,97.90
2019-01-23T15:12:56.667Z,97.70
2019-01-23T15:15:25.046Z,97.90
2019-01-23T15:17:53.968Z,97.90
2019-01-23T15:20:30.739Z,98.00
2019-01-23T15:22:59.152Z,97.90
2019-01-23T15:25:27.538Z,98.10
2019-01-23T15:27:55.922Z,97.90
2019-01-23T15:30:24.754Z,98.00
2019-01-23T15:32:53.131Z,98.20
2019-01-23T15:35:21.529Z,98.30
2019-01-23T15:37:49.931Z,98.20
2019-01-23T15:40:20.735Z,98.30
2019-01-23T15:42:49.143Z,98.20
2019-01-23T15:45:17.522Z,98.10
2019-01-23T15:47:45.919Z,98.00
2019-01-23T15:50:17.427Z,98.10
2019-01-23T15:52:45.824Z,98.30
2019-01-23T15:55:16.157Z,98.50
2019-01-23T15:57:44.569Z,98.60
2019-01-23T16:00:24.452Z,98.50
2019-01-23T16:02:52.818Z,98.60
2019-01-23T16:05:21.241Z,98.80
2019-01-23T16:07:49.638Z,98.70
2019-01-23T16:10:23.305Z,98.60
2019-01-23T16:12:51.710Z,98.60
2019-01-23T16:15:27.099Z,98.90
2019-01-23T16:17:55.507Z,98.80
2019-01-23T16:20:24.032Z,98.80
2019-01-23T16:22:52.422Z,99.00
2019-01-23T16:25:20.798Z,99.10
2019-01-23T16:27:49.210Z,99.00
2019-01-23T16:30:29.446Z,99.10
2019-01-23T16:32:57.859Z,99.10
2019-01-23T16:35:26.264Z,99.00
2019-01-23T16:37:54.640Z,99.00
2019-01-23T16:40:23.069Z,99.00
2019-01-23T16:42:51.443Z,99.00
2019-01-23T16:45:20.778Z,99.00
2019-01-23T16:47:49.197Z,99.20
2019-01-23T16:50:26.557Z,99.20
2019-01-23T16:52:55.255Z,99.20
2019-01-23T16:55:23.823Z,99.30
2019-01-23T16:57:52.505Z,99.30
2019-01-23T17:00:23.053Z,99.10
2019-01-23T17:02:51.450Z,99.30
2019-01-23T17:05:22.170Z,99.30
2019-01-23T17:07:50.571Z,99.40
2019-01-23T17:10:21.494Z,99.20
2019-01-23T17:12:49.912Z,99.30
2019-01-23T17:15:18.279Z,99.40
2019-01-23T17:17:46.680Z,99.50
2019-01-23T17:20:18.614Z,99.50
2019-01-23T17:22:47.000Z,99.40
2019-01-23T17:25:15.420Z,99.40
2019-01-23T17:27:43.858Z,99.50
2019-01-23T17:30:17.273Z,99.60
2019-01-23T17:32:45.933Z,99.70
2019-01-23T17:35:17.288Z,99.90
2019-01-23T17:37:45.655Z,99.90
2019-01-23T17:40:16.800Z,99.50
2019-01-23T17:42:45.274Z,99.50
2019-01-23T17:45:25.918Z,99.70
2019-01-23T17:47:54.289Z,99.90
2019-01-23T17:50:23.826Z,99.50
2019-01-23T17:52:52.519Z,99.60
2019-01-23T17:55:29.748Z,99.80
2019-01-23T17:57:58.436Z,99.40
2019-01-23T18:00:30.249Z,99.10
2019-01-23T18:02:58.623Z,99.30
2019-01-23T18:05:27.041Z,99.10
2019-01-23T18:07:55.557Z,99.10
2019-01-23T18:10:24.108Z,98.90
2019-01-23T18:12:52.513Z,99.00
2019-01-23T18:15:23.709Z,98.80
2019-01-23T18:17:52.082Z,98.80
2019-01-23T18:20:23.071Z,98.30
2019-01-23T18:22:51.470Z,98.10
2019-01-23T18:25:19.853Z,98.10
2019-01-23T18:27:48.255Z,98.00
2019-01-23T18:30:22.679Z,98.10
2019-01-23T18:32:51.807Z,98.00
2019-01-23T18:35:41.859Z,97.80
2019-01-23T18:38:18.791Z,97.60
2019-01-23T18:41:11.452Z,97.90
2019-01-23T18:43:48.627Z,97.80
2019-01-23T18:46:44.989Z,98.00
2019-01-23T18:49:34.854Z,97.90
2019-01-23T18:52:09.236Z,98.00
2019-01-23T18:54:37.654Z,98.10
2019-01-23T18:57:08.162Z,98.10
2019-01-23T18:59:36.530Z,98.10
2019-01-23T19:02:04.922Z,97.90
2019-01-23T19:04:33.307Z,98.00
2019-01-23T19:07:01.704Z,98.10
2019-01-23T19:09:30.074Z,98.10
2019-01-23T19:11:58.484Z,98.00
2019-01-23T19:14:26.869Z,98.10
2019-01-23T19:16:55.279Z,98.30
2019-01-23T19:19:23.665Z,98.10
2019-01-23T19:21:55.185Z,98.60
2019-01-23T19:24:22.089Z,98.70
2019-01-23T19:26:50.487Z,98.70
2019-01-23T19:29:18.927Z,98.70
2019-01-23T19:31:47.338Z,98.70
2019-01-23T19:34:15.835Z,98.90
2019-01-23T19:36:44.205Z,99.00
2019-01-23T19:39:12.614Z,98.90
2019-01-23T19:41:40.986Z,99.00
2019-01-23T19:44:09.394Z,98.90
2019-01-23T19:46:37.771Z,99.10
2019-01-23T19:49:06.187Z,99.30
2019-01-23T19:51:34.560Z,99.00
2019-01-23T19:54:02.954Z,99.10
2019-01-23T19:56:31.345Z,99.00
2019-01-23T19:58:59.736Z,98.90
2019-01-23T20:01:28.147Z,98.80
2019-01-23T20:03:56.524Z,99.10
2019-01-23T20:06:24.930Z,99.00
2019-01-23T20:08:53.385Z,98.90
2019-01-23T20:11:22.529Z,98.90
2019-01-23T20:13:51.295Z,99.20
2019-01-23T20:16:19.746Z,99.30
2019-01-23T20:18:48.148Z,99.50
2019-01-23T20:21:16.515Z,99.20
2019-01-23T20:23:44.926Z,99.00
2019-01-23T20:26:13.304Z,99.30
2019-01-23T20:28:41.716Z,99.30
2019-01-23T20:31:10.089Z,99.40
2019-01-23T20:33:38.494Z,99.90
2019-01-23T20:36:06.884Z,99.40
2019-01-23T20:38:35.276Z,99.40
2019-01-23T20:41:03.663Z,99.60
2019-01-23T20:43:32.066Z,99.50
2019-01-23T20:46:00.495Z,99.60
2019-01-23T20:48:28.871Z,99.60
2019-01-23T20:50:57.292Z,99.80
2019-01-23T20:53:25.700Z,99.30
2019-01-23T20:55:54.102Z,99.60
2019-01-23T20:58:22.515Z,99.50
2019-01-23T21:00:50.908Z,99.50
2019-01-23T21:03:19.282Z,99.50
2019-01-23T21:05:47.686Z,99.50
2019-01-23T21:08:16.088Z,99.20
2019-01-23T21:10:44.504Z,99.40
2019-01-23T21:13:12.879Z,99.40
2019-01-23T21:15:41.286Z,99.70
2019-01-23T21:18:09.697Z,99.70
2019-01-23T21:20:38.061Z,99.60
2019-01-23T21:23:06.468Z,99.50
2019-01-23T21:25:34.849Z,99.80
2019-01-23T21:28:03.242Z,99.90
2019-01-23T21:30:31.619Z,99.90
2019-01-23T21:33:00.035Z,99.90
2019-01-23T21:35:28.428Z,99.90
2019-01-23T21:37:56.788Z,99.90
2019-01-23T21:40:27.726Z,99.90
2019-01-23T21:42:56.122Z,99.90
2019-01-23T21:45:24.514Z,99.90
2019-01-23T21:47:52.895Z,99.90
2019-01-23T21:50:23.429Z,99.90
2019-01-23T21:52:51.811Z,99.90
2019-01-23T21:55:22.443Z,99.90
2019-01-23T21:57:51.278Z,99.90
2019-01-23T22:00:25.333Z,99.90
2019-01-23T22:02:54.779Z,99.90
2019-01-23T22:05:23.157Z,99.90
2019-01-23T22:07:51.536Z,99.90
2019-01-23T22:10:19.954Z,99.90
2019-01-23T22:12:48.326Z,99.90
2019-01-23T22:15:22.302Z,99.90
2019-01-23T22:17:50.642Z,99.90
2019-01-23T22:20:20.573Z,99.90
2019-01-23T22:22:48.948Z,99.90
2019-01-23T22:25:22.623Z,99.90
2019-01-23T22:27:51.094Z,99.90
2019-01-23T22:30:25.204Z,99.90
2019-01-23T22:32:53.591Z,99.90
2019-01-23T22:35:21.983Z,99.90
2019-01-23T22:37:50.369Z,99.90
2019-01-23T22:40:19.769Z,99.90
2019-01-23T22:42:48.252Z,99.90
2019-01-23T22:45:20.843Z,99.90
2019-01-23T22:47:49.212Z,99.90
2019-01-23T22:50:20.324Z,99.90
2019-01-23T22:52:48.764Z,99.90
2019-01-23T22:55:17.216Z,99.90
2019-01-23T22:57:45.611Z,99.90
2019-01-23T23:00:17.246Z,99.90
2019-01-23T23:02:45.646Z,99.90
2019-01-23T23:05:14.017Z,99.90
2019-01-23T23:07:42.419Z,99.90
2019-01-23T23:10:10.800Z,99.90
2019-01-23T23:12:39.203Z,99.90
2019-01-23T23:15:10.218Z,99.90
2019-01-23T23:17:38.621Z,99.90
2019-01-23T23:20:10.003Z,99.90
2019-01-23T23:22:38.407Z,99.90
2019-01-23T23:25:07.628Z,99.90
2019-01-23T23:27:39.464Z,99.90
2019-01-23T23:30:14.888Z,99.90
2019-01-23T23:32:44.150Z,99.90
2019-01-23T23:35:12.605Z,99.90
2019-01-23T23:37:40.994Z,99.90
2019-01-23T23:40:13.886Z,99.90
2019-01-23T23:42:42.289Z,99.90
2019-01-23T23:45:18.193Z,99.90
2019-01-23T23:47:46.558Z,99.90
2019-01-23T23:50:16.079Z,99.90
2019-01-23T23:52:44.482Z,99.90
2019-01-23T23:55:14.603Z,99.90
2019-01-23T23:57:43.009Z,99.90
